createdAt,value
2018-09-25T00:04:25.664Z,66.64
2018-09-25T00:09:33.598Z,66.79
2018-09-25T00:14:41.601Z,66.58
2018-09-25T00:19:49.524Z,66.48
2018-09-25T00:24:57.507Z,66.75
2018-09-25T00:30:05.252Z,66.80
2018-09-25T00:35:13.137Z,66.52
2018-09-25T00:40:20.931Z,66.76
2018-09-25T00:45:28.660Z,67.09
2018-09-25T00:50:36.345Z,66.86
2018-09-25T00:55:44.315Z,67.15
2018-09-25T01:00:52.349Z,66.91
2018-09-25T01:06:00.254Z,66.79
2018-09-25T01:11:08.023Z,66.93
2018-09-25T01:16:15.919Z,67.55
2018-09-25T01:21:23.860Z,66.98
2018-09-25T01:26:31.831Z,66.93
2018-09-25T01:31:39.773Z,66.93
2018-09-25T01:36:47.701Z,66.99
2018-09-25T01:41:55.692Z,67.19
2018-09-25T01:47:03.683Z,67.01
2018-09-25T01:52:11.567Z,67.07
2018-09-25T01:57:19.280Z,67.79
2018-09-25T02:02:27.327Z,67.81
2018-09-25T02:07:35.136Z,67.48
2018-09-25T02:12:43.019Z,67.39
2018-09-25T02:17:51.011Z,68.24
2018-09-25T02:22:58.771Z,67.61
2018-09-25T02:28:06.662Z,68.14
2018-09-25T02:33:14.481Z,67.28
2018-09-25T02:38:22.395Z,67.96
2018-09-25T02:43:30.275Z,67.54
2018-09-25T02:48:38.157Z,67.75
2018-09-25T02:53:46.111Z,67.86
2018-09-25T02:58:53.990Z,68.12
2018-09-25T03:04:01.979Z,67.69
2018-09-25T03:09:12.468Z,67.59
2018-09-25T03:14:20.290Z,67.34
2018-09-25T03:19:28.322Z,68.01
2018-09-25T03:24:36.092Z,67.55
2018-09-25T03:29:43.773Z,67.91
2018-09-25T03:34:51.716Z,67.45
2018-09-25T03:39:59.605Z,67.97
2018-09-25T03:45:07.628Z,67.54
2018-09-25T03:50:15.314Z,67.70
2018-09-25T03:55:23.087Z,67.45
2018-09-25T04:00:30.987Z,67.96
2018-09-25T04:05:38.939Z,68.01
2018-09-25T04:10:46.694Z,67.93
2018-09-25T04:15:54.670Z,68.53
2018-09-25T04:21:02.586Z,67.95
2018-09-25T04:26:10.595Z,67.80
2018-09-25T04:31:18.451Z,68.05
2018-09-25T04:36:26.134Z,68.19
2018-09-25T04:41:34.105Z,67.85
2018-09-25T04:46:42.039Z,67.75
2018-09-25T04:51:49.999Z,67.81
2018-09-25T04:56:57.780Z,68.20
2018-09-25T05:02:05.672Z,68.11
2018-09-25T05:07:13.359Z,68.42
2018-09-25T05:12:21.117Z,67.89
2018-09-25T05:17:29.004Z,68.24
2018-09-25T05:22:36.904Z,68.17
2018-09-25T05:27:44.809Z,68.07
2018-09-25T05:32:52.703Z,68.63
2018-09-25T05:38:00.618Z,68.87
2018-09-25T05:43:08.563Z,68.04
2018-09-25T05:48:16.265Z,68.05
2018-09-25T05:53:24.144Z,68.04
2018-09-25T05:58:32.128Z,68.16
2018-09-25T06:03:40.108Z,68.61
2018-09-25T06:08:48.021Z,69.12
2018-09-25T06:13:55.753Z,69.84
2018-09-25T06:19:03.723Z,69.71
2018-09-25T06:24:11.635Z,69.56
2018-09-25T06:29:19.588Z,69.53
2018-09-25T06:34:27.466Z,69.75
2018-09-25T06:39:35.373Z,70.05
2018-09-25T06:44:43.360Z,70.60
2018-09-25T06:49:51.326Z,70.60
2018-09-25T06:54:59.185Z,70.31
2018-09-25T07:00:07.019Z,69.85
2018-09-25T07:05:15.018Z,69.86
2018-09-25T07:10:23.039Z,69.84
2018-09-25T07:15:30.857Z,69.39
2018-09-25T07:20:38.612Z,69.20
2018-09-25T07:25:46.586Z,69.40
2018-09-25T07:30:54.472Z,69.71
2018-09-25T07:36:02.427Z,69.56
2018-09-25T07:41:10.254Z,68.55
2018-09-25T07:46:18.044Z,67.85
2018-09-25T07:51:25.974Z,67.44
2018-09-25T07:56:33.867Z,67.35
2018-09-25T08:01:41.818Z,67.60
2018-09-25T08:06:49.829Z,66.90
2018-09-25T08:11:57.755Z,65.80
2018-09-25T08:17:05.661Z,65.40
2018-09-25T08:22:13.568Z,65.34
2018-09-25T08:27:21.623Z,63.86
2018-09-25T08:32:29.462Z,63.60
2018-09-25T08:37:37.573Z,64.00
2018-09-25T08:42:45.555Z,64.24
2018-09-25T08:47:53.537Z,62.46
2018-09-25T08:53:01.475Z,62.81
2018-09-25T08:58:09.447Z,62.74
2018-09-25T09:03:17.423Z,61.03
2018-09-25T09:08:25.465Z,60.51
2018-09-25T09:13:33.304Z,59.75
2018-09-25T09:18:41.224Z,58.76
2018-09-25T09:23:48.883Z,58.03
2018-09-25T09:28:56.912Z,57.09
2018-09-25T09:34:04.879Z,58.44
2018-09-25T09:39:13.613Z,58.11
2018-09-25T09:44:21.368Z,57.80
2018-09-25T09:49:29.298Z,59.07
2018-09-25T09:54:37.191Z,56.74
2018-09-25T09:59:45.069Z,57.88
2018-09-25T10:04:52.960Z,55.45
2018-09-25T10:10:01.200Z,55.29
2018-09-25T10:15:09.133Z,54.59
2018-09-25T10:20:17.080Z,54.63
2018-09-25T10:25:24.810Z,55.35
2018-09-25T10:30:32.659Z,55.64
2018-09-25T10:35:40.558Z,54.77
2018-09-25T10:40:48.491Z,54.52
2018-09-25T10:45:56.391Z,55.24
2018-09-25T10:51:04.315Z,55.24
2018-09-25T10:56:12.391Z,55.05
2018-09-25T11:01:20.214Z,54.65
2018-09-25T11:06:28.086Z,55.03
2018-09-25T11:11:35.913Z,55.12
2018-09-25T11:16:43.638Z,52.03
2018-09-25T11:21:51.543Z,52.88
2018-09-25T11:26:59.494Z,52.87
2018-09-25T11:32:07.410Z,52.77
2018-09-25T11:42:36.559Z,53.13
2018-09-25T11:47:44.472Z,51.98
2018-09-25T11:52:52.456Z,50.18
2018-09-25T11:58:00.320Z,50.65
2018-09-25T12:03:08.281Z,49.93
2018-09-25T12:08:16.100Z,48.85
2018-09-25T12:13:24.016Z,46.30
2018-09-25T12:18:31.919Z,46.05
2018-09-25T12:23:39.873Z,46.57
2018-09-25T12:28:47.827Z,46.82
2018-09-25T12:33:55.623Z,47.12
2018-09-25T12:39:03.498Z,47.17
2018-09-25T12:44:11.436Z,46.24
2018-09-25T12:49:19.333Z,42.98
2018-09-25T12:54:27.199Z,42.77
2018-09-25T12:59:35.123Z,41.38
2018-09-25T13:04:43.134Z,43.63
2018-09-25T13:09:51.053Z,46.21
2018-09-25T13:14:58.922Z,48.10
2018-09-25T13:20:06.710Z,48.38
2018-09-25T13:25:14.745Z,47.08
2018-09-25T13:30:22.712Z,47.31
2018-09-25T13:35:30.615Z,44.64
2018-09-25T13:40:38.549Z,44.76
2018-09-25T13:45:46.476Z,47.16
2018-09-25T13:50:54.296Z,48.15
2018-09-25T13:56:02.223Z,48.98
2018-09-25T14:01:10.109Z,49.47
2018-09-25T14:06:18.106Z,48.08
2018-09-25T14:11:26.021Z,47.91
2018-09-25T14:16:33.697Z,48.05
2018-09-25T14:21:41.595Z,48.62
2018-09-25T14:26:49.526Z,49.14
2018-09-25T14:31:57.447Z,50.47
2018-09-25T14:37:05.426Z,52.07
2018-09-25T14:42:13.174Z,52.20
2018-09-25T14:47:21.135Z,53.33
2018-09-25T14:52:29.060Z,58.22
2018-09-25T14:57:37.090Z,56.48
2018-09-25T15:02:45.042Z,55.05
2018-09-25T15:07:53.003Z,54.93
2018-09-25T15:13:01.014Z,55.32
2018-09-25T15:18:08.941Z,56.52
2018-09-25T15:23:16.774Z,57.03
2018-09-25T15:28:24.821Z,57.71
2018-09-25T15:33:32.792Z,57.29
2018-09-25T15:38:41.245Z,57.54
2018-09-25T15:43:49.344Z,57.84
2018-09-25T15:48:57.333Z,58.58
2018-09-25T15:54:05.325Z,58.47
2018-09-25T15:59:13.360Z,58.21
2018-09-25T16:04:21.472Z,58.55
2018-09-25T16:09:29.288Z,58.93
2018-09-25T16:14:37.229Z,59.75
2018-09-25T16:19:45.172Z,60.68
2018-09-25T16:24:53.140Z,61.02
2018-09-25T16:30:01.102Z,61.37
2018-09-25T16:35:08.957Z,61.48
2018-09-25T16:40:16.901Z,62.25
2018-09-25T16:45:24.899Z,62.58
2018-09-25T16:50:32.668Z,62.95
2018-09-25T16:55:40.638Z,63.19
2018-09-25T17:00:48.558Z,62.49
2018-09-25T17:05:56.610Z,61.77
2018-09-25T17:11:04.639Z,62.06
2018-09-25T17:16:12.610Z,61.92
2018-09-25T17:21:20.528Z,62.85
2018-09-25T17:26:28.896Z,62.51
2018-09-25T17:31:36.861Z,63.18
2018-09-25T17:36:44.853Z,63.28
2018-09-25T17:41:52.912Z,63.38
2018-09-25T17:47:00.801Z,63.59
2018-09-25T17:52:08.690Z,64.33
2018-09-25T17:57:16.668Z,64.64
2018-09-25T18:02:24.451Z,65.15
2018-09-25T18:07:32.404Z,64.92
2018-09-25T18:12:40.403Z,65.04
2018-09-25T18:17:48.276Z,65.90
2018-09-25T18:22:56.284Z,66.32
2018-09-25T18:28:04.290Z,66.66
2018-09-25T18:33:12.084Z,66.67
2018-09-25T18:38:19.995Z,67.13
2018-09-25T18:43:28.048Z,67.29
2018-09-25T18:48:36.243Z,67.37
2018-09-25T18:53:44.383Z,67.53
2018-09-25T18:58:52.273Z,68.09
2018-09-25T19:04:00.401Z,68.08
2018-09-25T19:09:08.274Z,68.14
2018-09-25T19:14:16.189Z,68.07
2018-09-25T19:19:24.141Z,68.38
2018-09-25T19:24:32.063Z,68.40
2018-09-25T19:29:40.112Z,69.23
2018-09-25T19:34:48.128Z,69.11
2018-09-25T19:39:55.892Z,69.76
2018-09-25T19:45:03.861Z,69.65
2018-09-25T19:50:11.839Z,69.55
2018-09-25T19:55:19.672Z,70.15
2018-09-25T20:00:27.705Z,70.60
2018-09-25T20:05:35.621Z,71.08
2018-09-25T20:10:43.597Z,71.03
2018-09-25T20:15:51.483Z,70.43
2018-09-25T20:20:59.423Z,70.14
2018-09-25T20:26:07.343Z,69.81
2018-09-25T20:31:15.396Z,70.25
2018-09-25T20:36:23.135Z,71.08
2018-09-25T20:41:30.887Z,70.59
2018-09-25T20:46:38.781Z,71.13
2018-09-25T20:51:46.650Z,70.84
2018-09-25T20:56:54.762Z,70.71
2018-09-25T21:02:02.764Z,71.09
2018-09-25T21:07:10.760Z,71.09
2018-09-25T21:12:19.045Z,71.19
2018-09-25T21:17:26.949Z,70.70
2018-09-25T21:22:34.964Z,70.42
2018-09-25T21:27:42.732Z,70.21
2018-09-25T21:32:50.643Z,70.20
2018-09-25T21:37:58.351Z,70.38
2018-09-25T21:43:06.224Z,70.72
2018-09-25T21:48:14.091Z,70.75
2018-09-25T21:53:21.921Z,70.74
2018-09-25T21:58:29.921Z,70.94
2018-09-25T22:03:37.796Z,70.96
2018-09-25T22:08:45.757Z,71.00
2018-09-25T22:13:53.707Z,70.40
2018-09-25T22:19:01.483Z,70.83
2018-09-25T22:24:09.405Z,71.23
2018-09-25T22:29:17.325Z,71.56
2018-09-25T22:34:25.325Z,70.99
2018-09-25T22:39:33.106Z,71.49
2018-09-25T22:44:41.048Z,71.43
2018-09-25T22:49:49.067Z,72.04
2018-09-25T22:54:56.777Z,71.88
2018-09-25T23:00:04.681Z,71.46
2018-09-25T23:05:12.604Z,72.11
2018-09-25T23:10:20.495Z,72.03
2018-09-25T23:15:28.715Z,72.33
2018-09-25T23:20:36.708Z,72.10
2018-09-25T23:25:44.687Z,72.75
2018-09-25T23:30:52.599Z,71.91
2018-09-25T23:36:00.494Z,72.10
2018-09-25T23:41:13.920Z,72.34
2018-09-25T23:46:21.814Z,72.12
2018-09-25T23:51:31.861Z,72.58
2018-09-25T23:56:38.963Z,72.04
